sensor_id;sensor_type;location;lat;lon;timestamp;temperature;humidity
6536;DHT22;34330;52.08032700;5.40923460;2023-04-01T00:00:48;13.60;95.40
6536;DHT22;34330;52.08032700;5.40923460;2023-04-01T00:03:16;13.60;95.30
6536;DHT22;34330;52.08032700;5.40923460;2023-04-01T00:05:45;13.60;95.40
6536;DHT22;34330;52.08032700;5.40923460;2023-04-01T00:08:15;13.70;95.40
6536;DHT22;34330;52.08032700;5.40923460;2023-04-01T00:10:43;13.70;95.50
6536;DHT22;34330;52.08032700;5.40923460;2023-04-01T00:13:12;13.70;95.40
6536;DHT22;34330;52.08032700;5.40923460;2023-04-01T00:15:40;13.70;95.40
6536;DHT22;34330;52.08032700;5.40923460;2023-04-01T00:18:08;13.70;95.40
6536;DHT22;34330;52.08032700;5.40923460;2023-04-01T00:20:36;13.70;95.50
6536;DHT22;34330;52.08032700;5.40923460;2023-04-01T00:23:04;13.70;95.50
6536;DHT22;34330;52.08032700;5.40923460;2023-04-01T00:25:33;13.70;95.40
6536;DHT22;34330;52.08032700;5.40923460;2023-04-01T00:28:01;13.70;95.40
6536;DHT22;34330;52.08032700;5.40923460;2023-04-01T00:30:29;13.70;95.40
6536;DHT22;34330;52.08032700;5.40923460;2023-04-01T00:32:57;13.70;95.20
6536;DHT22;34330;52.08032700;5.40923460;2023-04-01T00:35:26;13.70;95.30
6536;DHT22;34330;52.08032700;5.40923460;2023-04-01T00:37:53;13.70;95.30
6536;DHT22;34330;52.08032700;5.40923460;2023-04-01T00:40:26;13.70;95.40
6536;DHT22;34330;52.08032700;5.40923460;2023-04-01T00:42:56;13.70;95.40
6536;DHT22;34330;52.08032700;5.40923460;2023-04-01T00:45:31;13.70;95.30
6536;DHT22;34330;52.08032700;5.40923460;2023-04-01T00:48:04;13.70;95.40
6536;DHT22;34330;52.08032700;5.40923460;2023-04-01T00:50:35;13.70;95.30
6536;DHT22;34330;52.08032700;5.40923460;2023-04-01T00:53:03;13.60;95.20
6536;DHT22;34330;52.08032700;5.40923460;2023-04-01T00:55:35;13.60;95.20
6536;DHT22;34330;52.08032700;5.40923460;2023-04-01T00:58:10;13.60;95.30
6536;DHT22;34330;52.08032700;5.40923460;2023-04-01T01:00:40;13.60;95.40
6536;DHT22;34330;52.08032700;5.40923460;2023-04-01T01:03:08;13.60;95.30
6536;DHT22;34330;52.08032700;5.40923460;2023-04-01T01:05:51;13.60;95.30
6536;DHT22;34330;52.08032700;5.40923460;2023-04-01T01:08:30;13.60;95.40
6536;DHT22;34330;52.08032700;5.40923460;2023-04-01T01:11:05;13.60;95.30
6536;DHT22;34330;52.08032700;5.40923460;2023-04-01T01:13:42;13.50;95.20
6536;DHT22;34330;52.08032700;5.40923460;2023-04-01T01:16:17;13.50;95.30
6536;DHT22;34330;52.08032700;5.40923460;2023-04-01T01:18:50;13.50;95.20
6536;DHT22;34330;52.08032700;5.40923460;2023-04-01T01:21:32;13.50;95.20
6536;DHT22;34330;52.08032700;5.40923460;2023-04-01T01:24:30;13.50;95.30
6536;DHT22;34330;52.08032700;5.40923460;2023-04-01T01:27:05;13.40;95.30
6536;DHT22;34330;52.08032700;5.40923460;2023-04-01T01:29:52;13.40;95.20
6536;DHT22;34330;52.08032700;5.40923460;2023-04-01T01:35:26;13.40;95.20
6536;DHT22;34330;52.08032700;5.40923460;2023-04-01T01:38:00;13.40;95.20
6536;DHT22;34330;52.08032700;5.40923460;2023-04-01T01:40:30;13.30;95.20
6536;DHT22;34330;52.08032700;5.40923460;2023-04-01T01:43:02;13.30;95.20
6536;DHT22;34330;52.08032700;5.40923460;2023-04-01T01:45:33;13.30;95.70
6536;DHT22;34330;52.08032700;5.40923460;2023-04-01T01:48:03;13.30;95.30
6536;DHT22;34330;52.08032700;5.40923460;2023-04-01T01:50:34;13.30;95.30
6536;DHT22;34330;52.08032700;5.40923460;2023-04-01T01:53:04;13.20;95.20
6536;DHT22;34330;52.08032700;5.40923460;2023-04-01T01:55:34;13.20;95.20
6536;DHT22;34330;52.08032700;5.40923460;2023-04-01T01:58:06;13.20;95.20
6536;DHT22;34330;52.08032700;5.40923460;2023-04-01T02:00:36;13.20;95.30
6536;DHT22;34330;52.08032700;5.40923460;2023-04-01T02:03:04;13.20;95.30
6536;DHT22;34330;52.08032700;5.40923460;2023-04-01T02:05:35;13.20;95.40
6536;DHT22;34330;52.08032700;5.40923460;2023-04-01T02:08:07;13.20;95.30
6536;DHT22;34330;52.08032700;5.40923460;2023-04-01T02:10:37;13.20;95.40
6536;DHT22;34330;52.08032700;5.40923460;2023-04-01T02:13:13;13.10;95.40
6536;DHT22;34330;52.08032700;5.40923460;2023-04-01T02:15:46;13.10;95.40
6536;DHT22;34330;52.08032700;5.40923460;2023-04-01T02:18:15;13.10;95.40
6536;DHT22;34330;52.08032700;5.40923460;2023-04-01T02:20:46;13.10;95.40
6536;DHT22;34330;52.08032700;5.40923460;2023-04-01T02:23:14;13.20;95.40
6536;DHT22;34330;52.08032700;5.40923460;2023-04-01T02:25:43;13.10;95.40
6536;DHT22;34330;52.08032700;5.40923460;2023-04-01T02:28:13;13.10;95.50
6536;DHT22;34330;52.08032700;5.40923460;2023-04-01T02:30:43;13.00;95.40
6536;DHT22;34330;52.08032700;5.40923460;2023-04-01T02:33:12;13.10;95.50
6536;DHT22;34330;52.08032700;5.40923460;2023-04-01T02:35:40;13.10;95.40
6536;DHT22;34330;52.08032700;5.40923460;2023-04-01T02:38:09;13.10;95.40
6536;DHT22;34330;52.08032700;5.40923460;2023-04-01T02:40:42;13.10;95.30
6536;DHT22;34330;52.08032700;5.40923460;2023-04-01T02:43:10;13.00;95.40
6536;DHT22;34330;52.08032700;5.40923460;2023-04-01T02:45:38;13.00;95.20
6536;DHT22;34330;52.08032700;5.40923460;2023-04-01T02:48:06;13.00;95.20
6536;DHT22;34330;52.08032700;5.40923460;2023-04-01T02:50:34;13.00;95.20
6536;DHT22;34330;52.08032700;5.40923460;2023-04-01T02:53:02;13.00;95.30
6536;DHT22;34330;52.08032700;5.40923460;2023-04-01T02:55:34;12.90;95.30
6536;DHT22;34330;52.08032700;5.40923460;2023-04-01T02:58:02;12.90;95.30
6536;DHT22;34330;52.08032700;5.40923460;2023-04-01T03:00:30;12.90;95.40
6536;DHT22;34330;52.08032700;5.40923460;2023-04-01T03:02:58;12.90;95.40
6536;DHT22;34330;52.08032700;5.40923460;2023-04-01T03:05:27;12.90;95.40
6536;DHT22;34330;52.08032700;5.40923460;2023-04-01T03:07:55;12.90;95.40
6536;DHT22;34330;52.08032700;5.40923460;2023-04-01T03:10:23;12.80;95.40
6536;DHT22;34330;52.08032700;5.40923460;2023-04-01T03:12:53;12.80;95.50
6536;DHT22;34330;52.08032700;5.40923460;2023-04-01T03:15:21;12.80;95.40
6536;DHT22;34330;52.08032700;5.40923460;2023-04-01T03:17:49;12.80;95.50
6536;DHT22;34330;52.08032700;5.40923460;2023-04-01T03:20:18;12.80;95.50
6536;DHT22;34330;52.08032700;5.40923460;2023-04-01T03:22:46;12.80;95.60
6536;DHT22;34330;52.08032700;5.40923460;2023-04-01T03:25:14;12.80;95.50
6536;DHT22;34330;52.08032700;5.40923460;2023-04-01T03:27:41;12.80;95.70
6536;DHT22;34330;52.08032700;5.40923460;2023-04-01T03:30:11;12.80;95.60
6536;DHT22;34330;52.08032700;5.40923460;2023-04-01T03:32:39;12.80;95.80
6536;DHT22;34330;52.08032700;5.40923460;2023-04-01T03:35:07;12.80;95.70
6536;DHT22;34330;52.08032700;5.40923460;2023-04-01T03:37:36;12.80;95.80
6536;DHT22;34330;52.08032700;5.40923460;2023-04-01T03:40:05;12.80;95.80
6536;DHT22;34330;52.08032700;5.40923460;2023-04-01T03:42:34;12.80;95.90
6536;DHT22;34330;52.08032700;5.40923460;2023-04-01T03:45:03;12.80;95.90
6536;DHT22;34330;52.08032700;5.40923460;2023-04-01T03:47:32;12.80;95.90
6536;DHT22;34330;52.08032700;5.40923460;2023-04-01T03:50:00;12.80;95.90
6536;DHT22;34330;52.08032700;5.40923460;2023-04-01T03:52:28;12.80;95.80
6536;DHT22;34330;52.08032700;5.40923460;2023-04-01T03:54:57;12.80;95.80
6536;DHT22;34330;52.08032700;5.40923460;2023-04-01T03:57:25;12.80;95.90
6536;DHT22;34330;52.08032700;5.40923460;2023-04-01T03:59:53;12.80;95.90
6536;DHT22;34330;52.08032700;5.40923460;2023-04-01T04:02:21;12.80;95.90
6536;DHT22;34330;52.08032700;5.40923460;2023-04-01T04:04:50;12.80;96.00
6536;DHT22;34330;52.08032700;5.40923460;2023-04-01T04:07:18;12.90;96.00
6536;DHT22;34330;52.08032700;5.40923460;2023-04-01T04:09:46;12.90;96.00
6536;DHT22;34330;52.08032700;5.40923460;2023-04-01T04:12:14;12.90;96.10
6536;DHT22;34330;52.08032700;5.40923460;2023-04-01T04:14:42;12.90;96.00
6536;DHT22;34330;52.08032700;5.40923460;2023-04-01T04:17:10;12.90;96.00
6536;DHT22;34330;52.08032700;5.40923460;2023-04-01T04:19:43;12.90;96.10
6536;DHT22;34330;52.08032700;5.40923460;2023-04-01T04:22:12;12.90;96.00
6536;DHT22;34330;52.08032700;5.40923460;2023-04-01T04:24:40;12.90;96.10
6536;DHT22;34330;52.08032700;5.40923460;2023-04-01T04:27:08;13.00;96.30
6536;DHT22;34330;52.08032700;5.40923460;2023-04-01T04:29:36;13.00;96.30
6536;DHT22;34330;52.08032700;5.40923460;2023-04-01T04:32:04;13.00;96.30
6536;DHT22;34330;52.08032700;5.40923460;2023-04-01T04:34:33;13.00;96.30
6536;DHT22;34330;52.08032700;5.40923460;2023-04-01T04:37:01;13.00;96.20
6536;DHT22;34330;52.08032700;5.40923460;2023-04-01T04:39:30;13.00;96.30
6536;DHT22;34330;52.08032700;5.40923460;2023-04-01T04:41:58;13.00;96.30
6536;DHT22;34330;52.08032700;5.40923460;2023-04-01T04:44:26;13.10;96.40
6536;DHT22;34330;52.08032700;5.40923460;2023-04-01T04:46:54;13.10;96.40
6536;DHT22;34330;52.08032700;5.40923460;2023-04-01T04:49:24;13.30;96.50
6536;DHT22;34330;52.08032700;5.40923460;2023-04-01T04:51:52;13.10;96.40
6536;DHT22;34330;52.08032700;5.40923460;2023-04-01T04:54:20;13.10;96.40
6536;DHT22;34330;52.08032700;5.40923460;2023-04-01T04:56:51;13.10;96.50
6536;DHT22;34330;52.08032700;5.40923460;2023-04-01T04:59:19;13.20;96.60
6536;DHT22;34330;52.08032700;5.40923460;2023-04-01T05:01:47;13.20;96.50
6536;DHT22;34330;52.08032700;5.40923460;2023-04-01T05:04:16;13.20;96.50
6536;DHT22;34330;52.08032700;5.40923460;2023-04-01T05:06:44;13.20;96.50
6536;DHT22;34330;52.08032700;5.40923460;2023-04-01T05:09:12;13.20;96.50
6536;DHT22;34330;52.08032700;5.40923460;2023-04-01T05:11:40;13.40;96.60
6536;DHT22;34330;52.08032700;5.40923460;2023-04-01T05:14:13;13.20;96.50
6536;DHT22;34330;52.08032700;5.40923460;2023-04-01T05:16:41;13.20;96.70
6536;DHT22;34330;52.08032700;5.40923460;2023-04-01T05:19:09;13.30;96.60
6536;DHT22;34330;52.08032700;5.40923460;2023-04-01T05:21:37;13.30;96.60
6536;DHT22;34330;52.08032700;5.40923460;2023-04-01T05:24:08;13.30;96.60
6536;DHT22;34330;52.08032700;5.40923460;2023-04-01T05:26:36;13.30;96.60
6536;DHT22;34330;52.08032700;5.40923460;2023-04-01T05:29:04;13.30;96.50
6536;DHT22;34330;52.08032700;5.40923460;2023-04-01T05:31:34;13.30;96.50
6536;DHT22;34330;52.08032700;5.40923460;2023-04-01T05:34:01;13.30;96.60
6536;DHT22;34330;52.08032700;5.40923460;2023-04-01T05:36:30;13.30;96.50
6536;DHT22;34330;52.08032700;5.40923460;2023-04-01T05:38:58;13.30;96.80
6536;DHT22;34330;52.08032700;5.40923460;2023-04-01T05:41:25;13.30;96.60
6536;DHT22;34330;52.08032700;5.40923460;2023-04-01T05:43:54;13.30;96.60
6536;DHT22;34330;52.08032700;5.40923460;2023-04-01T05:46:22;13.30;96.60
6536;DHT22;34330;52.08032700;5.40923460;2023-04-01T05:48:51;13.30;96.60
6536;DHT22;34330;52.08032700;5.40923460;2023-04-01T05:51:19;13.30;96.60
6536;DHT22;34330;52.08032700;5.40923460;2023-04-01T05:53:47;13.30;96.70
6536;DHT22;34330;52.08032700;5.40923460;2023-04-01T05:56:15;13.40;96.70
6536;DHT22;34330;52.08032700;5.40923460;2023-04-01T05:58:43;13.40;96.70
6536;DHT22;34330;52.08032700;5.40923460;2023-04-01T06:01:14;13.40;96.80
6536;DHT22;34330;52.08032700;5.40923460;2023-04-01T06:03:42;13.40;96.80
6536;DHT22;34330;52.08032700;5.40923460;2023-04-01T06:06:14;13.40;96.70
6536;DHT22;34330;52.08032700;5.40923460;2023-04-01T06:08:43;13.40;96.70
6536;DHT22;34330;52.08032700;5.40923460;2023-04-01T06:11:19;13.40;96.70
6536;DHT22;34330;52.08032700;5.40923460;2023-04-01T06:14:02;13.50;96.80
6536;DHT22;34330;52.08032700;5.40923460;2023-04-01T06:16:42;13.50;96.80
6536;DHT22;34330;52.08032700;5.40923460;2023-04-01T06:19:25;13.50;96.80
6536;DHT22;34330;52.08032700;5.40923460;2023-04-01T06:22:32;13.50;96.80
6536;DHT22;34330;52.08032700;5.40923460;2023-04-01T06:25:27;13.50;96.80
6536;DHT22;34330;52.08032700;5.40923460;2023-04-01T06:28:29;13.50;96.80
6536;DHT22;34330;52.08032700;5.40923460;2023-04-01T06:31:07;13.50;96.80
6536;DHT22;34330;52.08032700;5.40923460;2023-04-01T06:33:48;13.50;96.70
6536;DHT22;34330;52.08032700;5.40923460;2023-04-01T06:36:32;13.50;96.70
6536;DHT22;34330;52.08032700;5.40923460;2023-04-01T06:39:48;13.50;96.70
6536;DHT22;34330;52.08032700;5.40923460;2023-04-01T06:42:46;13.50;96.90
6536;DHT22;34330;52.08032700;5.40923460;2023-04-01T06:45:32;13.50;96.80
6536;DHT22;34330;52.08032700;5.40923460;2023-04-01T06:48:19;13.50;96.80
6536;DHT22;34330;52.08032700;5.40923460;2023-04-01T06:50:54;13.50;96.80
6536;DHT22;34330;52.08032700;5.40923460;2023-04-01T06:53:30;13.50;96.70
6536;DHT22;34330;52.08032700;5.40923460;2023-04-01T06:56:05;13.50;96.70
6536;DHT22;34330;52.08032700;5.40923460;2023-04-01T06:58:37;13.50;96.80
6536;DHT22;34330;52.08032700;5.40923460;2023-04-01T07:01:09;13.60;96.80
6536;DHT22;34330;52.08032700;5.40923460;2023-04-01T07:03:43;13.60;96.80
6536;DHT22;34330;52.08032700;5.40923460;2023-04-01T07:06:26;13.60;96.80
6536;DHT22;34330;52.08032700;5.40923460;2023-04-01T07:08:59;13.60;96.90
6536;DHT22;34330;52.08032700;5.40923460;2023-04-01T07:11:34;13.60;96.80
6536;DHT22;34330;52.08032700;5.40923460;2023-04-01T07:14:06;13.60;96.80
6536;DHT22;34330;52.08032700;5.40923460;2023-04-01T07:16:41;13.60;96.80
6536;DHT22;34330;52.08032700;5.40923460;2023-04-01T07:19:14;13.60;96.80
6536;DHT22;34330;52.08032700;5.40923460;2023-04-01T07:21:46;13.60;96.70
6536;DHT22;34330;52.08032700;5.40923460;2023-04-01T07:24:26;13.60;96.70
6536;DHT22;34330;52.08032700;5.40923460;2023-04-01T07:26:57;13.60;96.80
6536;DHT22;34330;52.08032700;5.40923460;2023-04-01T07:29:26;13.60;96.80
6536;DHT22;34330;52.08032700;5.40923460;2023-04-01T07:32:09;13.70;96.80
6536;DHT22;34330;52.08032700;5.40923460;2023-04-01T07:34:46;13.70;96.90
6536;DHT22;34330;52.08032700;5.40923460;2023-04-01T07:37:22;13.70;96.80
6536;DHT22;34330;52.08032700;5.40923460;2023-04-01T07:40:01;13.70;96.80
6536;DHT22;34330;52.08032700;5.40923460;2023-04-01T07:42:44;13.70;96.90
6536;DHT22;34330;52.08032700;5.40923460;2023-04-01T07:45:20;13.70;96.90
6536;DHT22;34330;52.08032700;5.40923460;2023-04-01T07:48:08;13.80;96.90
6536;DHT22;34330;52.08032700;5.40923460;2023-04-01T07:50:42;13.80;96.90
6536;DHT22;34330;52.08032700;5.40923460;2023-04-01T07:53:17;13.80;96.80
6536;DHT22;34330;52.08032700;5.40923460;2023-04-01T07:55:52;13.80;96.90
6536;DHT22;34330;52.08032700;5.40923460;2023-04-01T07:58:31;13.80;96.90
6536;DHT22;34330;52.08032700;5.40923460;2023-04-01T08:01:06;13.90;96.90
6536;DHT22;34330;52.08032700;5.40923460;2023-04-01T08:03:52;13.90;96.90
6536;DHT22;34330;52.08032700;5.40923460;2023-04-01T08:06:30;13.90;96.90
6536;DHT22;34330;52.08032700;5.40923460;2023-04-01T08:09:04;13.90;96.70
6536;DHT22;34330;52.08032700;5.40923460;2023-04-01T08:11:43;13.90;96.80
6536;DHT22;34330;52.08032700;5.40923460;2023-04-01T08:14:22;13.90;96.80
6536;DHT22;34330;52.08032700;5.40923460;2023-04-01T08:16:59;13.90;96.80
6536;DHT22;34330;52.08032700;5.40923460;2023-04-01T08:19:36;13.90;96.80
6536;DHT22;34330;52.08032700;5.40923460;2023-04-01T08:22:11;13.90;96.80
6536;DHT22;34330;52.08032700;5.40923460;2023-04-01T08:24:46;14.00;96.80
6536;DHT22;34330;52.08032700;5.40923460;2023-04-01T08:27:20;14.00;96.80
6536;DHT22;34330;52.08032700;5.40923460;2023-04-01T08:29:56;14.00;96.90
6536;DHT22;34330;52.08032700;5.40923460;2023-04-01T08:32:28;14.00;96.90
6536;DHT22;34330;52.08032700;5.40923460;2023-04-01T08:35:07;14.00;96.80
6536;DHT22;34330;52.08032700;5.40923460;2023-04-01T08:37:39;14.20;97.00
6536;DHT22;34330;52.08032700;5.40923460;2023-04-01T08:40:28;14.00;96.80
6536;DHT22;34330;52.08032700;5.40923460;2023-04-01T08:43:09;14.00;96.90
6536;DHT22;34330;52.08032700;5.40923460;2023-04-01T08:46:03;14.10;97.00
6536;DHT22;34330;52.08032700;5.40923460;2023-04-01T08:48:48;14.10;97.00
6536;DHT22;34330;52.08032700;5.40923460;2023-04-01T08:51:36;14.10;97.10
6536;DHT22;34330;52.08032700;5.40923460;2023-04-01T08:57:23;14.10;97.00
6536;DHT22;34330;52.08032700;5.40923460;2023-04-01T08:59:59;14.20;97.00
6536;DHT22;34330;52.08032700;5.40923460;2023-04-01T09:05:36;14.20;97.00
6536;DHT22;34330;52.08032700;5.40923460;2023-04-01T09:08:18;14.20;97.10
6536;DHT22;34330;52.08032700;5.40923460;2023-04-01T09:11:04;14.20;97.10
6536;DHT22;34330;52.08032700;5.40923460;2023-04-01T09:13:51;14.20;97.10
6536;DHT22;34330;52.08032700;5.40923460;2023-04-01T09:19:27;14.30;97.00
6536;DHT22;34330;52.08032700;5.40923460;2023-04-01T09:22:10;14.30;97.20
6536;DHT22;34330;52.08032700;5.40923460;2023-04-01T09:27:39;14.40;97.30
6536;DHT22;34330;52.08032700;5.40923460;2023-04-01T09:36:22;14.50;97.30
6536;DHT22;34330;52.08032700;5.40923460;2023-04-01T09:38:57;14.60;97.30
6536;DHT22;34330;52.08032700;5.40923460;2023-04-01T09:41:32;14.60;97.50
6536;DHT22;34330;52.08032700;5.40923460;2023-04-01T09:52:26;14.70;96.90
6536;DHT22;34330;52.08032700;5.40923460;2023-04-01T10:01:28;14.70;97.00
6536;DHT22;34330;52.08032700;5.40923460;2023-04-01T10:04:16;14.80;97.10
6536;DHT22;34330;52.08032700;5.40923460;2023-04-01T10:10:20;14.90;97.20
6536;DHT22;34330;52.08032700;5.40923460;2023-04-01T10:13:35;14.90;97.20
6536;DHT22;34330;52.08032700;5.40923460;2023-04-01T10:16:34;15.00;97.30
6536;DHT22;34330;52.08032700;5.40923460;2023-04-01T10:19:16;15.10;97.50
6536;DHT22;34330;52.08032700;5.40923460;2023-04-01T10:22:24;15.10;97.50
6536;DHT22;34330;52.08032700;5.40923460;2023-04-01T10:25:18;15.20;97.80
6536;DHT22;34330;52.08032700;5.40923460;2023-04-01T10:28:00;15.30;97.70
6536;DHT22;34330;52.08032700;5.40923460;2023-04-01T10:36:51;15.60;97.30
6536;DHT22;34330;52.08032700;5.40923460;2023-04-01T10:42:28;15.80;96.70
6536;DHT22;34330;52.08032700;5.40923460;2023-04-01T10:51:59;15.90;95.90
6536;DHT22;34330;52.08032700;5.40923460;2023-04-01T10:54:45;15.90;95.60
6536;DHT22;34330;52.08032700;5.40923460;2023-04-01T10:57:36;15.90;95.60
6536;DHT22;34330;52.08032700;5.40923460;2023-04-01T11:00:45;15.90;95.50
6536;DHT22;34330;52.08032700;5.40923460;2023-04-01T11:03:44;15.90;95.40
6536;DHT22;34330;52.08032700;5.40923460;2023-04-01T11:09:46;15.80;95.40
6536;DHT22;34330;52.08032700;5.40923460;2023-04-01T11:15:53;15.80;95.90
6536;DHT22;34330;52.08032700;5.40923460;2023-04-01T11:18:53;15.90;95.90
6536;DHT22;34330;52.08032700;5.40923460;2023-04-01T11:21:50;15.90;95.80
6536;DHT22;34330;52.08032700;5.40923460;2023-04-01T11:24:46;15.90;95.80
6536;DHT22;34330;52.08032700;5.40923460;2023-04-01T11:27:30;16.00;95.60
6536;DHT22;34330;52.08032700;5.40923460;2023-04-01T11:30:33;16.00;95.40
6536;DHT22;34330;52.08032700;5.40923460;2023-04-01T11:33:11;18.40;96.40
6536;DHT22;34330;52.08032700;5.40923460;2023-04-01T11:36:06;15.90;95.60
6536;DHT22;34330;52.08032700;5.40923460;2023-04-01T11:38:53;18.30;96.40
6536;DHT22;34330;52.08032700;5.40923460;2023-04-01T11:41:33;15.90;95.40
6536;DHT22;34330;52.08032700;5.40923460;2023-04-01T11:44:16;15.90;95.50
6536;DHT22;34330;52.08032700;5.40923460;2023-04-01T11:46:56;15.90;95.30
6536;DHT22;34330;52.08032700;5.40923460;2023-04-01T11:49:45;15.90;95.10
6536;DHT22;34330;52.08032700;5.40923460;2023-04-01T11:52:30;15.90;95.30
6536;DHT22;34330;52.08032700;5.40923460;2023-04-01T11:55:15;15.90;95.30
6536;DHT22;34330;52.08032700;5.40923460;2023-04-01T11:58:06;15.90;95.70
6536;DHT22;34330;52.08032700;5.40923460;2023-04-01T12:01:01;15.90;95.40
6536;DHT22;34330;52.08032700;5.40923460;2023-04-01T12:03:46;15.90;95.40
6536;DHT22;34330;52.08032700;5.40923460;2023-04-01T12:06:22;15.90;95.20
6536;DHT22;34330;52.08032700;5.40923460;2023-04-01T12:09:00;15.80;95.00
6536;DHT22;34330;52.08032700;5.40923460;2023-04-01T12:11:36;15.80;94.90
6536;DHT22;34330;52.08032700;5.40923460;2023-04-01T12:14:16;15.80;94.90
6536;DHT22;34330;52.08032700;5.40923460;2023-04-01T12:17:02;15.70;94.90
6536;DHT22;34330;52.08032700;5.40923460;2023-04-01T12:19:41;15.70;94.80
6536;DHT22;34330;52.08032700;5.40923460;2023-04-01T12:22:32;15.60;95.00
6536;DHT22;34330;52.08032700;5.40923460;2023-04-01T12:25:17;15.60;95.20
6536;DHT22;34330;52.08032700;5.40923460;2023-04-01T12:27:57;15.60;95.40
6536;DHT22;34330;52.08032700;5.40923460;2023-04-01T12:30:39;15.60;95.60
6536;DHT22;34330;52.08032700;5.40923460;2023-04-01T12:33:29;15.80;95.70
6536;DHT22;34330;52.08032700;5.40923460;2023-04-01T12:36:13;15.50;95.70
6536;DHT22;34330;52.08032700;5.40923460;2023-04-01T12:38:57;15.60;95.90
6536;DHT22;34330;52.08032700;5.40923460;2023-04-01T12:41:33;15.60;95.80
6536;DHT22;34330;52.08032700;5.40923460;2023-04-01T12:44:26;15.60;95.80
6536;DHT22;34330;52.08032700;5.40923460;2023-04-01T12:50:19;15.60;95.50
6536;DHT22;34330;52.08032700;5.40923460;2023-04-01T12:53:01;15.60;95.60
6536;DHT22;34330;52.08032700;5.40923460;2023-04-01T12:55:38;17.40;96.40
6536;DHT22;34330;52.08032700;5.40923460;2023-04-01T12:58:37;15.70;95.60
6536;DHT22;34330;52.08032700;5.40923460;2023-04-01T13:01:48;15.50;95.80
6536;DHT22;34330;52.08032700;5.40923460;2023-04-01T13:04:43;15.50;96.10
6536;DHT22;34330;52.08032700;5.40923460;2023-04-01T13:07:36;15.60;96.00
6536;DHT22;34330;52.08032700;5.40923460;2023-04-01T13:10:19;15.60;96.20
6536;DHT22;34330;52.08032700;5.40923460;2023-04-01T13:13:05;15.60;96.30
6536;DHT22;34330;52.08032700;5.40923460;2023-04-01T13:15:41;15.60;96.40
6536;DHT22;34330;52.08032700;5.40923460;2023-04-01T13:18:20;15.70;96.40
6536;DHT22;34330;52.08032700;5.40923460;2023-04-01T13:21:00;15.70;96.40
6536;DHT22;34330;52.08032700;5.40923460;2023-04-01T13:23:50;15.70;96.50
6536;DHT22;34330;52.08032700;5.40923460;2023-04-01T13:26:27;15.80;96.40
6536;DHT22;34330;52.08032700;5.40923460;2023-04-01T13:29:01;15.80;96.10
6536;DHT22;34330;52.08032700;5.40923460;2023-04-01T13:31:38;15.80;95.90
6536;DHT22;34330;52.08032700;5.40923460;2023-04-01T13:34:22;15.80;95.90
6536;DHT22;34330;52.08032700;5.40923460;2023-04-01T13:37:03;15.80;95.90
6536;DHT22;34330;52.08032700;5.40923460;2023-04-01T13:39:54;15.80;95.80
6536;DHT22;34330;52.08032700;5.40923460;2023-04-01T13:42:25;15.80;95.60
6536;DHT22;34330;52.08032700;5.40923460;2023-04-01T13:44:59;15.80;95.40
6536;DHT22;34330;52.08032700;5.40923460;2023-04-01T13:48:03;15.80;95.50
6536;DHT22;34330;52.08032700;5.40923460;2023-04-01T13:54:08;15.70;95.60
6536;DHT22;34330;52.08032700;5.40923460;2023-04-01T13:56:45;15.60;95.50
6536;DHT22;34330;52.08032700;5.40923460;2023-04-01T14:02:44;15.60;96.00
6536;DHT22;34330;52.08032700;5.40923460;2023-04-01T14:05:44;15.60;96.00
6536;DHT22;34330;52.08032700;5.40923460;2023-04-01T14:08:25;15.60;96.00
6536;DHT22;34330;52.08032700;5.40923460;2023-04-01T14:11:07;15.60;95.90
6536;DHT22;34330;52.08032700;5.40923460;2023-04-01T14:13:43;15.50;95.90
6536;DHT22;34330;52.08032700;5.40923460;2023-04-01T14:16:41;15.50;95.90
6536;DHT22;34330;52.08032700;5.40923460;2023-04-01T14:19:26;15.50;95.90
6536;DHT22;34330;52.08032700;5.40923460;2023-04-01T14:22:08;15.50;95.90
6536;DHT22;34330;52.08032700;5.40923460;2023-04-01T14:27:50;15.40;95.70
6536;DHT22;34330;52.08032700;5.40923460;2023-04-01T14:30:41;15.40;95.60
6536;DHT22;34330;52.08032700;5.40923460;2023-04-01T14:33:22;15.30;95.70
6536;DHT22;34330;52.08032700;5.40923460;2023-04-01T14:36:04;15.30;95.70
6536;DHT22;34330;52.08032700;5.40923460;2023-04-01T14:38:47;15.20;95.70
6536;DHT22;34330;52.08032700;5.40923460;2023-04-01T14:41:20;15.20;95.70
6536;DHT22;34330;52.08032700;5.40923460;2023-04-01T14:44:18;15.10;95.60
6536;DHT22;34330;52.08032700;5.40923460;2023-04-01T14:47:15;15.10;95.60
6536;DHT22;34330;52.08032700;5.40923460;2023-04-01T14:49:51;15.00;95.60
6536;DHT22;34330;52.08032700;5.40923460;2023-04-01T14:52:25;15.00;95.60
6536;DHT22;34330;52.08032700;5.40923460;2023-04-01T14:54:56;14.90;95.70
6536;DHT22;34330;52.08032700;5.40923460;2023-04-01T14:57:27;14.90;95.80
6536;DHT22;34330;52.08032700;5.40923460;2023-04-01T15:00:01;14.80;95.80
6536;DHT22;34330;52.08032700;5.40923460;2023-04-01T15:02:45;14.80;95.90
6536;DHT22;34330;52.08032700;5.40923460;2023-04-01T15:05:27;14.80;95.80
6536;DHT22;34330;52.08032700;5.40923460;2023-04-01T15:08:18;14.70;95.70
6536;DHT22;34330;52.08032700;5.40923460;2023-04-01T15:10:57;14.70;95.80
6536;DHT22;34330;52.08032700;5.40923460;2023-04-01T15:16:29;14.70;95.90
6536;DHT22;34330;52.08032700;5.40923460;2023-04-01T15:19:07;14.60;96.10
6536;DHT22;34330;52.08032700;5.40923460;2023-04-01T15:21:55;14.60;96.00
6536;DHT22;34330;52.08032700;5.40923460;2023-04-01T15:24:40;14.60;96.10
6536;DHT22;34330;52.08032700;5.40923460;2023-04-01T15:27:31;14.60;96.20
6536;DHT22;34330;52.08032700;5.40923460;2023-04-01T15:33:26;14.60;96.30
6536;DHT22;34330;52.08032700;5.40923460;2023-04-01T15:36:07;14.60;96.30
6536;DHT22;34330;52.08032700;5.40923460;2023-04-01T15:38:42;14.60;96.10
6536;DHT22;34330;52.08032700;5.40923460;2023-04-01T15:41:15;14.60;96.20
6536;DHT22;34330;52.08032700;5.40923460;2023-04-01T15:43:45;14.60;96.20
6536;DHT22;34330;52.08032700;5.40923460;2023-04-01T15:46:26;14.60;96.30
6536;DHT22;34330;52.08032700;5.40923460;2023-04-01T15:49:15;14.70;96.40